Lady Goodgirl — 9H8679 — position and weather

sailwx.info

Track history (hours):
 
Tides and Currents Weather Stations Pressure Air Temp Water Temp Dewpoint Dewpoint Depression Visibility Wind Speed Wind Dir Waves Ship Positions

Lady Goodgirl

Last reported at 2015-May-18 20:22 UTC. Time now 2015-May-23 10:20 UTC.
Position N 43°16' E 006°37'.

Length 38 m; draft 3 m.

Type: Pleasure craft. MMSI: 256670000.

Date/timePositionNaut miles runAvg speedWind from/ knotsBaromVisibWave heightAir tempDewpointWater temp
2015-May-18 20:22N 43°16' E 006°37'0 0.0
2015-May-18 19:31N 43°16' E 006°37'0 0.0
2015-May-18 15:25N 43°16' E 006°37'  
2015-May-13 15:33N 43°16' E 006°37'3 2.7
2015-May-13 14:24N 43°17' E 006°41'1011.6
2015-May-13 13:33N 43°09' E 006°49'1711.6
2015-May-13 12:06N 42°56' E 007°03'811.7
2015-May-13 11:27N 42°50' E 007°10'2711.5
2015-May-13 09:05N 42°30' E 007°35'31211.3
2015-May-12 05:26N 38°24' E 011°49'1411.7
2015-May-12 04:12N 38°12' E 011°58'811.7
2015-May-12 03:33N 38°06' E 012°04'1111.4
2015-May-12 02:33N 37°56' E 012°11'1211.5
2015-May-12 01:33N 37°46' E 012°18'1211.5
2015-May-12 00:33N 37°36' E 012°27'6811.4
2015-May-11 18:32N 37°02' E 013°41'1111.3
2015-May-11 17:33N 36°53' E 013°49'1110.5
2015-May-11 16:33N 36°43' E 013°54'10 9.6
2015-May-11 15:33N 36°35' E 013°59'10 9.9
2015-May-11 14:33N 36°26' E 014°05'1010.2
2015-May-11 13:33N 36°17' E 014°12'1010.4
2015-May-11 12:33N 36°08' E 014°18'1110.5
2015-May-11 11:32N 35°60' E 014°26'6 0.1
2015-May-09 12:11N 35°54' E 014°30'0 0.0
2015-May-09 10:08N 35°54' E 014°30'0 0.0
2015-May-09 09:32N 35°54' E 014°30'0 0.0
2015-May-09 03:16N 35°54' E 014°30'0 0.0
2015-May-09 01:19N 35°54' E 014°30'0 0.0
2015-May-08 23:25N 35°54' E 014°30'0 0.0
2015-May-08 22:31N 35°54' E 014°30'  
Track history (hours):
 
Tides and Currents Weather Stations Pressure Air Temp Water Temp Dewpoint Dewpoint Depression Visibility Wind Speed Wind Dir Waves Ship Positions

Lady Goodgirl

Last reported at 2015-May-18 20:22 UTC. Time now 2015-May-23 10:20 UTC.
Position N 43°16' E 006°37'.

Length 38 m; draft 3 m.

Type: Pleasure craft. MMSI: 256670000.

Date/timePositionNaut miles runAvg speedWind from/ knotsBaromVisibWave heightAir tempDewpointWater temp
2015-May-18 20:22N 43°16' E 006°37'0 0.0
2015-May-18 19:31N 43°16' E 006°37'0 0.0
2015-May-18 15:25N 43°16' E 006°37'  
2015-May-13 15:33N 43°16' E 006°37'3 2.7
2015-May-13 14:24N 43°17' E 006°41'1011.6
2015-May-13 13:33N 43°09' E 006°49'1711.6
2015-May-13 12:06N 42°56' E 007°03'811.7
2015-May-13 11:27N 42°50' E 007°10'2711.5
2015-May-13 09:05N 42°30' E 007°35'31211.3
2015-May-12 05:26N 38°24' E 011°49'1411.7
2015-May-12 04:12N 38°12' E 011°58'811.7
2015-May-12 03:33N 38°06' E 012°04'1111.4
2015-May-12 02:33N 37°56' E 012°11'1211.5
2015-May-12 01:33N 37°46' E 012°18'1211.5
2015-May-12 00:33N 37°36' E 012°27'6811.4
2015-May-11 18:32N 37°02' E 013°41'1111.3
2015-May-11 17:33N 36°53' E 013°49'1110.5
2015-May-11 16:33N 36°43' E 013°54'10 9.6
2015-May-11 15:33N 36°35' E 013°59'10 9.9
2015-May-11 14:33N 36°26' E 014°05'1010.2
2015-May-11 13:33N 36°17' E 014°12'1010.4
2015-May-11 12:33N 36°08' E 014°18'1110.5
2015-May-11 11:32N 35°60' E 014°26'6 0.1
2015-May-09 12:11N 35°54' E 014°30'0 0.0
2015-May-09 10:08N 35°54' E 014°30'0 0.0
2015-May-09 09:32N 35°54' E 014°30'0 0.0
2015-May-09 03:16N 35°54' E 014°30'0 0.0
2015-May-09 01:19N 35°54' E 014°30'0 0.0
2015-May-08 23:25N 35°54' E 014°30'0 0.0
2015-May-08 22:31N 35°54' E 014°30'  

Dump ship's entire track history